createdAt,value
2022-11-19T00:02:25.561Z,100.00
2022-11-19T00:04:53.279Z,100.00
2022-11-19T00:07:21.204Z,100.00
2022-11-19T00:09:49.060Z,100.00
2022-11-19T00:12:35.914Z,100.00
2022-11-19T00:15:03.983Z,100.00
2022-11-19T00:17:31.887Z,100.00
2022-11-19T00:19:59.571Z,100.00
2022-11-19T00:22:27.919Z,100.00
2022-11-19T00:24:55.539Z,100.00
2022-11-19T00:27:24.767Z,100.00
2022-11-19T00:29:52.595Z,100.00
2022-11-19T00:32:20.543Z,100.00
2022-11-19T00:34:48.224Z,100.00
2022-11-19T00:37:16.433Z,100.00
2022-11-19T00:39:44.087Z,100.00
2022-11-19T00:42:11.999Z,100.00
2022-11-19T00:44:41.261Z,100.00
2022-11-19T00:47:09.166Z,100.00
2022-11-19T00:49:36.796Z,100.00
2022-11-19T00:52:05.225Z,100.00
2022-11-19T00:54:33.233Z,100.00
2022-11-19T00:57:01.457Z,100.00
2022-11-19T00:59:29.438Z,100.00
2022-11-19T01:01:58.688Z,100.00
2022-11-19T01:04:26.492Z,100.00
2022-11-19T01:06:55.412Z,100.00
2022-11-19T01:09:23.139Z,100.00
2022-11-19T01:11:51.144Z,100.00
2022-11-19T01:14:18.952Z,100.00
2022-11-19T01:16:46.992Z,100.00
2022-11-19T01:19:16.861Z,100.00
2022-11-19T01:21:45.474Z,100.00
2022-11-19T01:24:13.131Z,100.00
2022-11-19T01:26:45.614Z,100.00
2022-11-19T01:29:14.286Z,100.00
2022-11-19T01:31:42.233Z,100.00
2022-11-19T01:34:09.901Z,100.00
2022-11-19T01:36:39.435Z,100.00
2022-11-19T01:39:07.126Z,100.00
2022-11-19T01:41:35.026Z,100.00
2022-11-19T01:44:05.812Z,100.00
2022-11-19T01:46:36.629Z,100.00
2022-11-19T01:49:08.114Z,100.00
2022-11-19T01:51:42.351Z,100.00
2022-11-19T01:54:16.353Z,100.00
2022-11-19T01:56:44.316Z,100.00
2022-11-19T01:59:17.535Z,100.00
2022-11-19T02:01:46.168Z,100.00
2022-11-19T02:04:16.517Z,100.00
2022-11-19T02:06:46.606Z,100.00
2022-11-19T02:09:14.519Z,100.00
2022-11-19T02:12:08.650Z,100.00
2022-11-19T02:15:00.363Z,100.00
2022-11-19T02:17:47.930Z,100.00
2022-11-19T02:20:43.043Z,100.00
2022-11-19T02:23:43.297Z,100.00
2022-11-19T02:26:58.381Z,100.00
2022-11-19T02:29:59.231Z,100.00
2022-11-19T02:32:33.838Z,100.00
2022-11-19T02:35:13.276Z,100.00
2022-11-19T02:37:46.083Z,100.00
2022-11-19T02:40:21.960Z,100.00
2022-11-19T02:42:57.880Z,100.00
2022-11-19T02:45:33.569Z,100.00
2022-11-19T02:48:07.456Z,100.00
2022-11-19T02:50:39.719Z,100.00
2022-11-19T02:53:07.606Z,100.00
2022-11-19T02:55:37.507Z,100.00
2022-11-19T02:58:10.272Z,100.00
2022-11-19T03:01:03.301Z,100.00
2022-11-19T03:03:49.987Z,100.00
2022-11-19T03:06:22.444Z,100.00
2022-11-19T03:08:50.316Z,100.00
2022-11-19T03:11:22.776Z,100.00
2022-11-19T03:14:13.335Z,100.00
2022-11-19T03:16:50.322Z,100.00
2022-11-19T03:19:33.800Z,100.00
2022-11-19T03:22:05.993Z,100.00
2022-11-19T03:24:36.623Z,100.00
2022-11-19T03:27:10.392Z,100.00
2022-11-19T03:29:44.157Z,100.00
2022-11-19T03:32:17.470Z,100.00
2022-11-19T03:34:47.854Z,100.00
2022-11-19T03:37:18.539Z,100.00
2022-11-19T03:39:48.488Z,100.00
2022-11-19T03:42:19.284Z,100.00
2022-11-19T03:44:51.264Z,100.00
2022-11-19T03:47:23.656Z,100.00
2022-11-19T03:49:56.179Z,100.00
2022-11-19T03:52:24.107Z,100.00
2022-11-19T03:54:52.016Z,100.00
2022-11-19T03:57:22.643Z,100.00
2022-11-19T03:59:50.401Z,100.00
2022-11-19T04:02:20.112Z,100.00
2022-11-19T04:04:47.903Z,100.00
2022-11-19T04:07:18.115Z,100.00
2022-11-19T04:09:46.337Z,100.00
2022-11-19T04:12:17.012Z,100.00
2022-11-19T04:14:44.806Z,100.00
2022-11-19T04:17:12.990Z,100.00
2022-11-19T04:19:42.044Z,100.00
2022-11-19T04:22:10.602Z,100.00
2022-11-19T04:24:38.548Z,100.00
2022-11-19T04:27:06.499Z,100.00
2022-11-19T04:29:34.245Z,100.00
2022-11-19T04:32:02.684Z,100.00
2022-11-19T04:34:30.584Z,100.00
2022-11-19T04:36:59.867Z,100.00
2022-11-19T04:39:27.732Z,100.00
2022-11-19T04:41:55.675Z,100.00
2022-11-19T04:44:23.420Z,100.00
2022-11-19T04:46:51.503Z,100.00
2022-11-19T04:49:19.548Z,100.00
2022-11-19T04:51:47.805Z,100.00
2022-11-19T04:54:17.127Z,100.00
2022-11-19T04:56:45.159Z,100.00
2022-11-19T04:59:12.896Z,100.00
2022-11-19T05:01:41.117Z,100.00
2022-11-19T05:04:08.854Z,100.00
2022-11-19T05:06:36.812Z,100.00
2022-11-19T05:09:04.839Z,100.00
2022-11-19T05:11:34.140Z,100.00
2022-11-19T05:14:01.852Z,100.00
2022-11-19T05:16:30.144Z,100.00
2022-11-19T05:18:57.807Z,100.00
2022-11-19T05:21:25.791Z,100.00
2022-11-19T05:23:53.791Z,100.00
2022-11-19T05:26:21.734Z,100.00
2022-11-19T05:28:50.763Z,100.00
2022-11-19T05:31:18.827Z,100.00
2022-11-19T05:33:46.523Z,100.00
2022-11-19T05:36:14.598Z,100.00
2022-11-19T05:38:42.454Z,100.00
2022-11-19T05:41:10.503Z,100.00
2022-11-19T05:43:38.230Z,100.00
2022-11-19T05:46:07.778Z,100.00
2022-11-19T05:48:35.609Z,100.00
2022-11-19T05:51:03.860Z,100.00
2022-11-19T05:53:31.672Z,100.00
2022-11-19T05:55:59.667Z,100.00
2022-11-19T05:58:27.348Z,100.00
2022-11-19T06:00:56.042Z,100.00
2022-11-19T06:03:25.155Z,100.00
2022-11-19T06:05:53.733Z,100.00
2022-11-19T06:08:21.617Z,100.00
2022-11-19T06:10:49.715Z,100.00
2022-11-19T06:13:17.459Z,100.00
2022-11-19T06:15:45.566Z,100.00
2022-11-19T06:18:13.295Z,100.00
2022-11-19T06:20:42.907Z,100.00
2022-11-19T06:23:10.716Z,100.00
2022-11-19T06:25:38.963Z,100.00
2022-11-19T06:28:06.744Z,100.00
2022-11-19T06:30:34.872Z,100.00
2022-11-19T06:33:02.547Z,100.00
2022-11-19T06:35:30.660Z,100.00
2022-11-19T06:38:00.088Z,100.00
2022-11-19T06:40:28.012Z,100.00
2022-11-19T06:42:55.864Z,100.00
2022-11-19T06:45:24.083Z,100.00
2022-11-19T06:47:51.786Z,100.00
2022-11-19T06:50:19.918Z,100.00
2022-11-19T06:52:47.972Z,100.00
2022-11-19T06:55:17.513Z,100.00
2022-11-19T06:57:45.322Z,100.00
2022-11-19T07:00:14.683Z,100.00
2022-11-19T07:02:42.384Z,100.00
2022-11-19T07:05:10.860Z,100.00
2022-11-19T07:07:38.708Z,100.00
2022-11-19T07:10:07.608Z,100.00
2022-11-19T07:12:36.801Z,100.00
2022-11-19T07:15:05.679Z,100.00
2022-11-19T07:17:33.858Z,100.00
2022-11-19T07:20:02.174Z,100.00
2022-11-19T07:22:30.305Z,100.00
2022-11-19T07:24:58.363Z,100.00
2022-11-19T07:27:26.076Z,100.00
2022-11-19T07:29:55.632Z,100.00
2022-11-19T07:32:23.331Z,100.00
2022-11-19T07:34:51.288Z,100.00
2022-11-19T07:37:19.528Z,100.00
2022-11-19T07:39:47.764Z,100.00
2022-11-19T07:42:33.416Z,100.00
2022-11-19T07:45:03.096Z,100.00
2022-11-19T07:47:30.797Z,100.00
2022-11-19T07:49:58.755Z,100.00
2022-11-19T07:52:26.756Z,100.00
2022-11-19T07:54:54.694Z,100.00
2022-11-19T07:57:27.185Z,100.00
2022-11-19T07:59:58.052Z,100.00
2022-11-19T08:02:27.179Z,100.00
2022-11-19T08:04:55.132Z,100.00
2022-11-19T08:07:23.004Z,100.00
2022-11-19T08:09:51.037Z,100.00
2022-11-19T08:12:18.719Z,100.00
2022-11-19T08:14:46.949Z,100.00
2022-11-19T08:17:32.356Z,100.00
2022-11-19T08:20:02.054Z,100.00
2022-11-19T08:22:29.806Z,100.00
2022-11-19T08:24:57.748Z,100.00
2022-11-19T08:27:25.590Z,100.00
2022-11-19T08:29:53.664Z,100.00
2022-11-19T08:32:21.340Z,100.00
2022-11-19T08:34:49.674Z,100.00
2022-11-19T08:37:18.691Z,100.00
2022-11-19T08:39:46.676Z,100.00
2022-11-19T08:42:32.265Z,100.00
2022-11-19T08:45:00.362Z,100.00
2022-11-19T08:47:28.403Z,100.00
2022-11-19T08:49:56.536Z,98.59
2022-11-19T08:52:25.575Z,97.32
2022-11-19T08:54:53.820Z,94.86
2022-11-19T08:57:21.515Z,95.55
2022-11-19T08:59:49.480Z,96.07
2022-11-19T09:02:17.443Z,90.89
2022-11-19T09:04:45.528Z,88.15
2022-11-19T09:07:13.293Z,86.28
2022-11-19T09:09:42.876Z,87.30
2022-11-19T09:12:10.979Z,84.22
2022-11-19T09:14:39.024Z,79.93
2022-11-19T09:17:07.036Z,82.81
2022-11-19T09:19:34.991Z,84.16
2022-11-19T09:22:02.735Z,84.91
2022-11-19T09:24:30.775Z,83.56
2022-11-19T09:27:02.391Z,83.32
2022-11-19T09:29:30.571Z,82.88
2022-11-19T09:31:58.669Z,83.34
2022-11-19T09:34:26.627Z,75.92
2022-11-19T09:36:54.310Z,76.13
2022-11-19T09:39:22.623Z,75.34
2022-11-19T09:41:56.315Z,74.98
2022-11-19T09:44:41.172Z,75.77
2022-11-19T09:47:24.155Z,73.04
2022-11-19T09:50:05.955Z,72.60
2022-11-19T09:52:38.401Z,68.26
2022-11-19T09:55:07.756Z,67.16
2022-11-19T09:57:47.272Z,67.02
2022-11-19T10:00:20.654Z,65.63
2022-11-19T10:02:48.454Z,65.80
2022-11-19T10:05:24.003Z,64.83
2022-11-19T10:07:59.459Z,65.72
2022-11-19T10:10:38.823Z,65.19
2022-11-19T10:13:37.968Z,63.97
2022-11-19T10:16:24.608Z,64.18
2022-11-19T10:19:04.096Z,68.56
2022-11-19T10:21:41.321Z,64.24
2022-11-19T10:24:17.939Z,65.30
2022-11-19T10:26:56.276Z,72.44
2022-11-19T10:29:28.989Z,66.56
2022-11-19T10:32:19.541Z,69.54
2022-11-19T10:34:48.367Z,68.78
2022-11-19T10:37:19.806Z,73.36
2022-11-19T10:39:53.414Z,78.07
2022-11-19T10:42:26.344Z,77.21
2022-11-19T10:44:59.023Z,77.78
2022-11-19T10:47:34.594Z,75.37
2022-11-19T10:50:06.874Z,74.88
2022-11-19T10:52:43.423Z,76.38
2022-11-19T10:55:19.924Z,76.27
2022-11-19T10:57:49.669Z,73.91
2022-11-19T11:00:18.695Z,72.96
2022-11-19T11:02:52.052Z,72.26
2022-11-19T11:05:20.420Z,74.31
2022-11-19T11:07:54.712Z,78.51
2022-11-19T11:10:38.828Z,76.53
2022-11-19T11:13:33.268Z,78.68
2022-11-19T11:16:07.482Z,77.21
2022-11-19T11:18:40.551Z,77.20
2022-11-19T11:21:13.157Z,76.98
2022-11-19T11:23:49.294Z,77.11
2022-11-19T11:26:23.369Z,76.44
2022-11-19T11:28:57.326Z,75.20
2022-11-19T11:31:33.869Z,75.46
2022-11-19T11:34:05.356Z,77.17
2022-11-19T11:36:36.093Z,71.09
2022-11-19T11:39:06.390Z,72.84
2022-11-19T11:44:28.752Z,77.09
2022-11-19T11:46:59.299Z,78.28
2022-11-19T11:49:32.025Z,75.24
2022-11-19T11:52:22.428Z,75.36
2022-11-19T11:54:59.653Z,74.84
2022-11-19T11:57:29.907Z,73.91
2022-11-19T11:59:58.836Z,74.32
2022-11-19T12:02:30.388Z,75.40
2022-11-19T12:05:02.211Z,76.34
2022-11-19T12:08:00.858Z,77.13
2022-11-19T12:10:34.663Z,69.16
2022-11-19T12:13:32.002Z,69.93
2022-11-19T12:16:10.307Z,67.54
2022-11-19T12:18:47.309Z,68.38
2022-11-19T12:21:28.936Z,69.33
2022-11-19T12:24:11.951Z,69.78
2022-11-19T12:26:48.578Z,71.72
2022-11-19T12:29:25.743Z,70.85
2022-11-19T12:32:12.492Z,72.81
2022-11-19T12:35:05.167Z,75.20
2022-11-19T12:37:46.635Z,73.58
2022-11-19T12:40:34.236Z,71.44
2022-11-19T12:43:19.780Z,71.30
2022-11-19T12:45:57.707Z,71.20
2022-11-19T12:48:38.620Z,70.90
2022-11-19T12:51:14.008Z,70.31
2022-11-19T12:54:06.884Z,71.26
2022-11-19T12:56:44.844Z,70.87
2022-11-19T12:59:30.596Z,72.15
2022-11-19T13:02:01.606Z,69.86
2022-11-19T13:04:38.271Z,69.69
2022-11-19T13:07:09.677Z,71.54
2022-11-19T13:09:44.764Z,69.12
2022-11-19T13:12:17.295Z,69.32
2022-11-19T13:14:52.020Z,69.57
2022-11-19T13:17:27.091Z,68.95
2022-11-19T13:19:58.851Z,69.31
2022-11-19T13:22:32.917Z,70.32
2022-11-19T13:25:05.849Z,69.35
2022-11-19T13:27:33.890Z,69.05
2022-11-19T13:30:04.480Z,71.44
2022-11-19T13:32:38.566Z,71.78
2022-11-19T13:35:15.225Z,74.68
2022-11-19T13:37:55.324Z,76.30
2022-11-19T13:40:33.571Z,78.52
2022-11-19T13:43:34.309Z,84.46
2022-11-19T13:46:14.987Z,88.95
2022-11-19T13:48:48.458Z,89.17
2022-11-19T13:51:25.911Z,91.59
2022-11-19T13:54:02.654Z,92.48
2022-11-19T13:56:42.987Z,91.99
2022-11-19T13:59:28.740Z,91.85
2022-11-19T14:02:28.471Z,94.42
2022-11-19T14:05:16.813Z,94.37
2022-11-19T14:08:03.188Z,95.11
2022-11-19T14:10:37.631Z,93.15
2022-11-19T14:13:32.297Z,91.31
2022-11-19T14:16:31.845Z,90.61
2022-11-19T14:19:27.288Z,89.89
2022-11-19T14:22:13.496Z,89.89
2022-11-19T14:25:17.371Z,90.02
2022-11-19T14:27:45.867Z,90.11
2022-11-19T14:31:03.628Z,90.07
2022-11-19T14:33:58.751Z,88.70
2022-11-19T14:36:38.667Z,88.98
2022-11-19T14:39:16.672Z,88.71
2022-11-19T14:41:45.531Z,88.50
2022-11-19T14:44:33.092Z,88.49
2022-11-19T14:47:33.700Z,87.63
2022-11-19T14:50:05.929Z,86.75
2022-11-19T14:52:37.784Z,86.17
2022-11-19T14:55:21.076Z,85.95
2022-11-19T14:57:57.491Z,85.78
2022-11-19T15:00:32.044Z,85.96
2022-11-19T15:03:04.272Z,86.57
2022-11-19T15:05:34.551Z,87.19
2022-11-19T15:08:44.061Z,88.74
2022-11-19T15:11:12.984Z,90.78
2022-11-19T15:13:42.283Z,91.40
2022-11-19T15:16:13.619Z,91.63
2022-11-19T15:19:15.900Z,92.04
2022-11-19T15:22:10.686Z,92.68
2022-11-19T15:24:51.586Z,93.34
2022-11-19T15:27:28.852Z,93.29
2022-11-19T15:30:12.475Z,92.78
2022-11-19T15:33:04.531Z,92.31
2022-11-19T15:36:14.620Z,92.72
2022-11-19T15:38:46.618Z,92.70
2022-11-19T15:41:17.043Z,92.70
2022-11-19T15:43:49.334Z,92.69
2022-11-19T15:46:23.838Z,91.73
2022-11-19T15:48:59.623Z,91.80
2022-11-19T15:51:31.341Z,92.17
2022-11-19T15:54:00.823Z,92.39
2022-11-19T15:56:32.482Z,92.58
2022-11-19T15:59:01.879Z,93.09
2022-11-19T16:01:32.153Z,93.09
2022-11-19T16:04:04.649Z,93.65
2022-11-19T16:06:36.031Z,93.82
2022-11-19T16:09:05.899Z,93.93
2022-11-19T16:11:56.674Z,94.90
2022-11-19T16:14:44.091Z,95.27
2022-11-19T16:17:31.505Z,95.49
2022-11-19T16:20:20.282Z,95.94
2022-11-19T16:22:55.704Z,96.39
2022-11-19T16:25:28.592Z,97.47
2022-11-19T16:27:59.520Z,98.53
2022-11-19T16:30:29.422Z,98.34
2022-11-19T16:32:59.265Z,99.20
2022-11-19T16:35:29.715Z,99.35
2022-11-19T16:38:01.297Z,99.37
2022-11-19T16:40:51.148Z,100.00
2022-11-19T16:43:19.055Z,99.92
2022-11-19T16:45:47.687Z,100.00
2022-11-19T16:48:45.413Z,100.00
2022-11-19T16:51:36.543Z,100.00
2022-11-19T16:58:15.683Z,100.00
2022-11-19T17:01:10.935Z,100.00
2022-11-19T17:03:39.615Z,100.00
2022-11-19T17:06:09.972Z,100.00
2022-11-19T17:08:38.911Z,100.00
2022-11-19T17:11:36.421Z,100.00
2022-11-19T17:14:18.229Z,100.00
2022-11-19T17:16:47.984Z,100.00
2022-11-19T17:19:19.469Z,100.00
2022-11-19T17:21:57.451Z,100.00
2022-11-19T17:24:28.254Z,100.00
2022-11-19T17:26:56.834Z,100.00
2022-11-19T17:29:26.284Z,100.00
2022-11-19T17:31:56.116Z,100.00
2022-11-19T17:34:30.537Z,100.00
2022-11-19T17:36:58.903Z,100.00
2022-11-19T17:39:26.812Z,100.00
2022-11-19T17:42:14.763Z,100.00
2022-11-19T17:44:44.498Z,100.00
2022-11-19T17:47:22.413Z,100.00
2022-11-19T17:49:52.177Z,100.00
2022-11-19T17:52:23.397Z,100.00
2022-11-19T17:54:51.565Z,100.00
2022-11-19T17:57:19.681Z,100.00
2022-11-19T17:59:49.080Z,100.00
2022-11-19T18:02:18.914Z,100.00
2022-11-19T18:04:48.056Z,100.00
2022-11-19T18:07:16.356Z,100.00
2022-11-19T18:09:44.829Z,100.00
2022-11-19T18:12:15.140Z,100.00
2022-11-19T18:14:43.646Z,100.00
2022-11-19T18:17:14.878Z,100.00
2022-11-19T18:19:42.852Z,100.00
2022-11-19T18:22:16.904Z,100.00
2022-11-19T18:24:44.845Z,100.00
2022-11-19T18:27:12.778Z,100.00
2022-11-19T18:29:40.785Z,100.00
2022-11-19T18:32:11.215Z,100.00
2022-11-19T18:34:40.263Z,100.00
2022-11-19T18:37:08.320Z,100.00
2022-11-19T18:39:36.656Z,100.00
2022-11-19T18:42:05.119Z,100.00
2022-11-19T18:44:34.572Z,100.00
2022-11-19T18:47:04.535Z,100.00
2022-11-19T18:49:33.427Z,100.00
2022-11-19T18:52:03.754Z,100.00
2022-11-19T18:54:31.776Z,100.00
2022-11-19T18:57:00.019Z,100.00
2022-11-19T18:59:31.528Z,100.00
2022-11-19T19:02:00.307Z,100.00
2022-11-19T19:04:28.203Z,100.00
2022-11-19T19:06:56.459Z,100.00
2022-11-19T19:09:26.434Z,100.00
2022-11-19T19:12:13.848Z,100.00
2022-11-19T19:14:42.350Z,100.00
2022-11-19T19:17:10.981Z,100.00
2022-11-19T19:19:39.004Z,100.00
2022-11-19T19:22:08.011Z,100.00
2022-11-19T19:24:37.142Z,100.00
2022-11-19T19:27:05.888Z,100.00
2022-11-19T19:29:33.857Z,100.00
2022-11-19T19:32:02.140Z,100.00
2022-11-19T19:34:30.466Z,100.00
2022-11-19T19:36:58.793Z,100.00
2022-11-19T19:39:26.584Z,100.00
2022-11-19T19:41:56.413Z,100.00
2022-11-19T19:44:24.367Z,100.00
2022-11-19T19:46:52.422Z,100.00
2022-11-19T19:49:20.581Z,100.00
2022-11-19T19:51:49.435Z,100.00
2022-11-19T19:54:17.551Z,100.00
2022-11-19T19:56:45.748Z,100.00
2022-11-19T19:59:15.443Z,100.00
2022-11-19T20:01:47.514Z,100.00
2022-11-19T20:04:16.351Z,100.00
2022-11-19T20:06:47.223Z,100.00
2022-11-19T20:09:15.356Z,100.00
2022-11-19T20:11:43.560Z,100.00
2022-11-19T20:14:11.532Z,100.00
2022-11-19T20:16:41.885Z,100.00
2022-11-19T20:19:13.953Z,100.00
2022-11-19T20:21:42.416Z,100.00
2022-11-19T20:24:12.898Z,100.00
2022-11-19T20:26:43.337Z,100.00
2022-11-19T20:29:13.875Z,100.00
2022-11-19T20:31:47.132Z,100.00
2022-11-19T20:34:16.060Z,100.00
2022-11-19T20:36:44.731Z,100.00
2022-11-19T20:39:12.937Z,100.00
2022-11-19T20:41:58.855Z,100.00
2022-11-19T20:44:26.825Z,100.00
2022-11-19T20:46:58.120Z,100.00
2022-11-19T20:49:28.147Z,100.00
2022-11-19T20:51:57.023Z,100.00
2022-11-19T20:54:25.754Z,100.00
2022-11-19T20:56:54.936Z,100.00
2022-11-19T20:59:24.226Z,100.00
2022-11-19T21:01:53.091Z,100.00
2022-11-19T21:04:23.657Z,100.00
2022-11-19T21:06:53.759Z,100.00
2022-11-19T21:09:22.038Z,100.00
2022-11-19T21:11:50.245Z,100.00
2022-11-19T21:14:18.219Z,100.00
2022-11-19T21:16:46.367Z,100.00
2022-11-19T21:19:14.401Z,100.00
2022-11-19T21:21:45.421Z,100.00
2022-11-19T21:24:13.753Z,100.00
2022-11-19T21:26:41.816Z,100.00
2022-11-19T21:29:09.715Z,100.00
2022-11-19T21:31:42.041Z,100.00
2022-11-19T21:34:11.769Z,100.00
2022-11-19T21:36:41.764Z,100.00
2022-11-19T21:39:12.509Z,100.00
2022-11-19T21:41:40.718Z,100.00
2022-11-19T21:44:08.544Z,100.00
2022-11-19T21:46:37.380Z,100.00
2022-11-19T21:49:06.084Z,100.00
2022-11-19T21:51:34.356Z,100.00
2022-11-19T21:54:02.222Z,100.00
2022-11-19T21:56:37.128Z,100.00
2022-11-19T21:59:07.188Z,100.00
2022-11-19T22:01:35.631Z,100.00
2022-11-19T22:04:03.673Z,100.00
2022-11-19T22:06:32.880Z,100.00
2022-11-19T22:09:00.790Z,100.00
2022-11-19T22:11:32.269Z,100.00
2022-11-19T22:14:04.222Z,100.00
2022-11-19T22:16:34.708Z,100.00
2022-11-19T22:19:02.956Z,100.00
2022-11-19T22:21:31.048Z,100.00
2022-11-19T22:23:59.027Z,100.00
2022-11-19T22:26:27.470Z,100.00
2022-11-19T22:28:55.699Z,100.00
2022-11-19T22:31:26.327Z,100.00
2022-11-19T22:33:55.405Z,100.00
2022-11-19T22:36:24.408Z,100.00
2022-11-19T22:38:53.066Z,100.00
2022-11-19T22:41:22.482Z,100.00
2022-11-19T22:43:50.735Z,100.00
2022-11-19T22:46:19.723Z,100.00
2022-11-19T22:48:48.791Z,100.00
2022-11-19T22:51:18.525Z,100.00
2022-11-19T22:53:46.855Z,100.00
2022-11-19T22:56:21.072Z,100.00
2022-11-19T22:58:49.976Z,100.00
2022-11-19T23:01:20.245Z,100.00
2022-11-19T23:03:49.511Z,100.00
2022-11-19T23:06:17.955Z,100.00
2022-11-19T23:08:46.212Z,100.00
2022-11-19T23:11:16.170Z,100.00
2022-11-19T23:13:44.556Z,100.00
2022-11-19T23:16:15.059Z,100.00
2022-11-19T23:18:46.725Z,100.00
2022-11-19T23:21:18.945Z,100.00
2022-11-19T23:23:46.684Z,100.00
2022-11-19T23:26:16.931Z,100.00
2022-11-19T23:28:45.783Z,100.00
2022-11-19T23:31:16.527Z,100.00
2022-11-19T23:33:44.680Z,100.00
2022-11-19T23:36:15.331Z,100.00
2022-11-19T23:38:45.212Z,100.00
2022-11-19T23:41:16.203Z,100.00
2022-11-19T23:43:44.399Z,100.00
2022-11-19T23:46:14.931Z,100.00
2022-11-19T23:48:44.547Z,100.00
2022-11-19T23:51:14.134Z,100.00
2022-11-19T23:53:42.608Z,100.00
2022-11-19T23:56:13.190Z,100.00
2022-11-19T23:58:41.928Z,100.00
